Time;durP1;ratioP1;P1;durP2;ratioP2;P2;SDS_P1;SDS_P2;PMS_P1;PMS_P2;Temp;Humidity;BMP_temperature;BMP_pressure;BME280_temperature;BME280_humidity;BME280_pressure;Samples;Min_cycle;Max_cycle;Signal;HPM_P1;HPM_P2
2021/04/30 00:01:09;;;;;;;1.95;1.27;;;11.00;99.90;;;;;;5067961;28;20569;-68
2021/04/30 00:03:34;;;;;;;1.45;1.35;;;10.80;99.90;;;;;;5066591;28;20024;-68
2021/04/30 00:06:01;;;;;;;1.90;1.50;;;10.80;99.90;;;;;;5067769;28;20028;-68
2021/04/30 00:08:26;;;;;;;1.58;1.23;;;10.70;99.90;;;;;;5067597;28;20017;-68
2021/04/30 00:10:52;;;;;;;1.40;1.30;;;10.70;99.90;;;;;;5066999;28;20048;-68
2021/04/30 00:13:18;;;;;;;2.78;1.30;;;10.70;99.90;;;;;;5068237;28;20346;-67
2021/04/30 00:15:45;;;;;;;1.30;1.20;;;10.60;99.90;;;;;;5067300;28;20032;-68
2021/04/30 00:18:11;;;;;;;1.60;1.10;;;10.70;99.90;;;;;;5067219;28;20584;-68
2021/04/30 00:20:40;;;;;;;1.20;1.00;;;10.70;99.90;;;;;;5067128;28;20052;-68
2021/04/30 00:23:12;;;;;;;0.80;0.80;;;10.60;99.90;;;;;;5067566;28;20118;-68
2021/04/30 00:25:40;;;;;;;1.73;1.20;;;10.60;99.90;;;;;;5067242;28;20025;-68
2021/04/30 00:28:07;;;;;;;1.33;1.15;;;10.60;99.90;;;;;;5067105;28;20041;-68
2021/04/30 00:30:34;;;;;;;1.55;1.30;;;10.50;99.90;;;;;;5067340;28;20028;-68
2021/04/30 00:33:00;;;;;;;2.40;1.20;;;10.70;99.90;;;;;;5067445;28;20063;-68
2021/04/30 00:35:25;;;;;;;2.45;1.20;;;10.70;99.90;;;;;;5066044;28;20032;-68
2021/04/30 00:37:51;;;;;;;2.60;1.30;;;10.60;99.90;;;;;;5067029;28;20032;-68
2021/04/30 00:40:17;;;;;;;4.55;1.77;;;10.60;99.90;;;;;;5067619;28;20036;-68
2021/04/30 00:42:44;;;;;;;3.03;2.10;;;10.50;99.90;;;;;;5066951;28;20056;-68
2021/04/30 00:45:16;;;;;;;4.50;1.67;;;10.60;99.90;;;;;;5067114;28;20219;-68
2021/04/30 00:47:43;;;;;;;1.85;1.52;;;10.60;99.90;;;;;;5066748;28;20198;-67
2021/04/30 00:50:10;;;;;;;2.00;1.40;;;10.70;99.90;;;;;;5066873;28;20031;-67
2021/04/30 00:52:38;;;;;;;2.53;1.42;;;10.70;99.90;;;;;;5066555;28;20029;-67
2021/04/30 00:55:15;;;;;;;2.15;1.73;;;10.80;99.90;;;;;;5066660;28;20032;-67
2021/04/30 00:57:47;;;;;;;3.97;1.25;;;10.90;99.90;;;;;;5066763;28;20051;-67
2021/04/30 01:00:13;;;;;;;1.63;1.50;;;10.80;99.90;;;;;;5066739;28;20037;-67
2021/04/30 01:02:40;;;;;;;2.15;1.60;;;11.00;99.90;;;;;;5066340;28;20121;-67
2021/04/30 01:05:07;;;;;;;2.40;2.15;;;11.00;99.90;;;;;;5066479;28;20491;-67
2021/04/30 01:07:34;;;;;;;2.03;1.70;;;11.00;99.90;;;;;;5066253;28;20074;-67
2021/04/30 01:10:00;;;;;;;1.63;1.42;;;11.10;99.90;;;;;;5066101;28;20024;-67
2021/04/30 01:12:25;;;;;;;2.22;1.70;;;11.10;99.90;;;;;;5066223;28;20033;-67
2021/04/30 01:14:53;;;;;;;2.55;1.90;;;11.20;99.90;;;;;;5066360;28;20028;-67
2021/04/30 01:17:19;;;;;;;2.20;1.60;;;11.20;99.90;;;;;;5066946;28;20029;-67
2021/04/30 01:19:45;;;;;;;2.17;1.65;;;11.20;99.90;;;;;;5066515;28;20033;-67
2021/04/30 01:22:11;;;;;;;2.67;1.60;;;11.10;99.90;;;;;;5066277;28;20055;-67
2021/04/30 01:24:37;;;;;;;3.25;1.77;;;11.20;99.90;;;;;;5066174;28;20027;-67
2021/04/30 01:27:03;;;;;;;2.80;1.80;;;11.20;99.90;;;;;;5064970;28;20024;-67
2021/04/30 01:29:29;;;;;;;1.80;1.70;;;11.20;99.90;;;;;;5065770;28;20042;-67
2021/04/30 01:31:55;;;;;;;2.28;2.05;;;11.20;99.90;;;;;;5066085;28;20020;-67
2021/04/30 01:34:21;;;;;;;2.28;2.00;;;11.20;99.90;;;;;;5065600;28;20054;-67
2021/04/30 01:36:47;;;;;;;3.25;2.25;;;11.20;99.90;;;;;;5066840;28;20108;-67
2021/04/30 01:39:14;;;;;;;3.03;2.10;;;11.20;99.90;;;;;;5065897;28;20032;-67
2021/04/30 01:41:41;;;;;;;3.72;1.83;;;11.10;99.90;;;;;;5065834;28;20046;-67
2021/04/30 01:44:12;;;;;;;2.47;1.95;;;11.00;99.90;;;;;;5066014;28;20111;-67
2021/04/30 01:46:38;;;;;;;1.95;1.70;;;11.00;99.90;;;;;;5065521;28;20023;-67
2021/04/30 01:49:06;;;;;;;2.30;1.88;;;10.80;99.90;;;;;;5065541;28;20030;-67
2021/04/30 01:51:35;;;;;;;2.10;1.70;;;10.90;99.90;;;;;;5065404;28;20487;-67
2021/04/30 01:54:03;;;;;;;2.03;1.83;;;10.80;99.90;;;;;;5065683;28;20036;-67
2021/04/30 01:56:29;;;;;;;2.35;2.10;;;10.80;99.90;;;;;;5065270;28;20055;-67
2021/04/30 01:58:54;;;;;;;2.05;1.67;;;10.80;99.90;;;;;;5065418;28;20498;-67
2021/04/30 02:01:20;;;;;;;2.70;1.95;;;10.80;99.90;;;;;;5065511;28;20056;-67
2021/04/30 02:03:46;;;;;;;3.25;2.17;;;10.90;99.90;;;;;;5065846;28;20494;-67
2021/04/30 02:06:12;;;;;;;2.85;2.50;;;11.00;99.90;;;;;;5065700;28;20411;-67
2021/04/30 02:08:37;;;;;;;3.17;2.35;;;11.00;99.90;;;;;;5065252;28;20552;-67
2021/04/30 02:11:04;;;;;;;2.60;2.20;;;10.90;99.90;;;;;;5064816;28;20094;-67
2021/04/30 02:13:31;;;;;;;2.50;2.20;;;11.00;99.90;;;;;;5065113;28;20033;-67
2021/04/30 02:15:56;;;;;;;3.53;2.83;;;11.10;99.90;;;;;;5066026;28;20039;-67
2021/04/30 02:18:24;;;;;;;4.13;2.38;;;11.20;99.90;;;;;;5064885;28;20032;-67
2021/04/30 02:20:50;;;;;;;2.63;2.40;;;11.20;99.90;;;;;;5065480;28;20028;-67
2021/04/30 02:23:19;;;;;;;3.50;2.45;;;11.10;99.90;;;;;;5065568;28;20025;-67
2021/04/30 02:25:45;;;;;;;4.97;2.90;;;11.00;99.90;;;;;;5065575;28;20032;-67
2021/04/30 02:28:10;;;;;;;3.15;2.83;;;11.10;99.90;;;;;;5065098;28;20028;-67
2021/04/30 02:30:38;;;;;;;3.83;2.65;;;11.20;99.90;;;;;;5065317;28;20070;-68
2021/04/30 02:33:05;;;;;;;3.40;2.42;;;11.20;99.90;;;;;;5065349;28;20418;-67
2021/04/30 02:35:37;;;;;;;3.08;2.38;;;11.20;99.90;;;;;;5064832;28;20178;-67
2021/04/30 02:38:08;;;;;;;3.60;2.83;;;11.20;99.90;;;;;;5065064;28;20040;-67
2021/04/30 02:40:35;;;;;;;2.90;2.55;;;11.20;99.90;;;;;;5065070;28;20066;-67
2021/04/30 02:43:05;;;;;;;3.00;2.70;;;11.20;99.90;;;;;;5064931;28;20430;-67
2021/04/30 02:45:31;;;;;;;3.33;2.50;;;11.20;99.90;;;;;;5064785;28;20097;-67
2021/04/30 02:47:57;;;;;;;3.60;3.00;;;11.10;99.90;;;;;;5064840;28;20063;-67
2021/04/30 02:50:28;;;;;;;3.42;2.60;;;11.20;99.90;;;;;;5064604;28;20054;-67
2021/04/30 02:52:55;;;;;;;3.40;2.88;;;11.20;99.90;;;;;;5065044;28;20024;-67
2021/04/30 02:55:25;;;;;;;4.05;2.97;;;11.20;99.90;;;;;;5064604;28;20515;-67
2021/04/30 02:57:52;;;;;;;3.00;2.42;;;11.20;99.90;;;;;;5064826;28;20028;-67
2021/04/30 03:00:18;;;;;;;4.05;2.50;;;11.10;99.90;;;;;;5068544;28;20086;-67
2021/04/30 03:02:45;;;;;;;3.40;2.50;;;11.10;99.90;;;;;;5068573;28;20032;-67
2021/04/30 03:05:12;;;;;;;2.50;2.30;;;11.10;99.90;;;;;;5068860;28;20154;-67
2021/04/30 03:07:38;;;;;;;4.13;2.92;;;11.10;99.90;;;;;;5068608;28;20036;-67
2021/04/30 03:10:06;;;;;;;4.20;3.22;;;11.10;99.90;;;;;;5068192;28;20032;-67
2021/04/30 03:12:33;;;;;;;4.57;3.58;;;11.00;99.90;;;;;;5068572;28;20123;-67
2021/04/30 03:14:59;;;;;;;4.57;3.08;;;11.00;99.90;;;;;;5068894;28;20039;-67
2021/04/30 03:17:26;;;;;;;4.43;2.97;;;11.10;99.90;;;;;;5068339;28;20040;-67
2021/04/30 03:19:53;;;;;;;3.92;2.83;;;11.10;99.90;;;;;;5068118;28;20514;-67
2021/04/30 03:22:20;;;;;;;3.85;2.85;;;11.20;99.90;;;;;;5069312;28;20032;-67
2021/04/30 03:24:46;;;;;;;3.67;3.03;;;11.20;99.90;;;;;;5068972;28;20025;-67
2021/04/30 03:27:13;;;;;;;3.80;2.75;;;11.20;99.90;;;;;;5068338;28;20029;-67
2021/04/30 03:29:39;;;;;;;3.65;2.90;;;11.20;99.90;;;;;;5068289;28;20212;-67
2021/04/30 03:32:07;;;;;;;2.97;2.65;;;11.20;99.90;;;;;;5068784;28;20048;-67
2021/04/30 03:34:35;;;;;;;3.28;2.65;;;11.20;99.90;;;;;;5067947;28;20017;-67
2021/04/30 03:37:03;;;;;;;3.85;2.70;;;11.10;99.90;;;;;;5068267;28;20037;-67
2021/04/30 03:39:30;;;;;;;3.38;2.72;;;11.10;99.90;;;;;;5067723;28;20384;-67
2021/04/30 03:41:56;;;;;;;2.55;2.30;;;11.10;99.90;;;;;;5068238;28;20035;-67
2021/04/30 03:44:22;;;;;;;2.35;2.10;;;11.00;99.90;;;;;;5067894;28;20028;-67
2021/04/30 03:46:49;;;;;;;2.92;2.53;;;10.90;99.90;;;;;;5068119;28;20024;-67
2021/04/30 03:49:15;;;;;;;5.07;3.00;;;10.90;99.90;;;;;;5068100;28;20298;-67
2021/04/30 03:51:41;;;;;;;2.50;2.30;;;10.90;99.90;;;;;;5068019;28;20037;-67
2021/04/30 03:54:06;;;;;;;4.05;2.50;;;10.90;99.90;;;;;;5067334;28;20025;-67
2021/04/30 03:56:32;;;;;;;6.88;4.60;;;11.00;99.90;;;;;;5067147;28;20462;-67
2021/04/30 03:58:58;;;;;;;5.00;3.95;;;11.10;99.90;;;;;;5078782;28;20052;-67
2021/04/30 04:01:24;;;;;;;6.57;3.28;;;11.20;99.90;;;;;;5089254;28;20020;-67
2021/04/30 04:03:50;;;;;;;3.80;3.08;;;11.10;99.90;;;;;;5071815;28;20040;-67
2021/04/30 04:06:17;;;;;;;3.72;3.33;;;11.00;99.90;;;;;;5068841;28;20052;-67
2021/04/30 04:08:43;;;;;;;3.97;2.92;;;11.00;99.90;;;;;;5067015;28;20025;-67
2021/04/30 04:11:08;;;;;;;3.92;3.10;;;11.00;99.90;;;;;;5066130;28;20028;-67
2021/04/30 04:13:36;;;;;;;3.92;3.53;;;11.10;99.90;;;;;;5066063;28;20068;-67
2021/04/30 04:16:03;;;;;;;8.07;3.90;;;11.10;99.90;;;;;;5067855;28;20040;-67
2021/04/30 04:18:29;;;;;;;16.20;7.47;;;11.10;99.90;;;;;;5066558;28;20017;-67
2021/04/30 04:20:54;;;;;;;15.75;7.13;;;11.20;99.90;;;;;;5067362;28;20036;-67
2021/04/30 04:23:20;;;;;;;12.88;6.68;;;11.20;99.90;;;;;;5067093;28;20029;-67
2021/04/30 04:25:46;;;;;;;12.45;5.80;;;11.20;99.90;;;;;;5068209;28;20028;-67
2021/04/30 04:28:13;;;;;;;11.35;5.22;;;11.10;99.90;;;;;;5066192;28;20445;-67
2021/04/30 04:30:38;;;;;;;27.00;11.70;;;11.10;99.90;;;;;;5067024;28;20020;-67
2021/04/30 04:33:04;;;;;;;43.53;17.88;;;11.00;99.90;;;;;;5067212;28;20027;-67
2021/04/30 04:35:30;;;;;;;42.15;16.50;;;11.00;99.90;;;;;;5067074;28;20116;-67
2021/04/30 04:37:56;;;;;;;45.60;17.35;;;11.00;99.90;;;;;;5066719;28;20082;-67
2021/04/30 04:40:22;;;;;;;45.17;18.35;;;11.00;99.90;;;;;;5066920;28;20112;-67
2021/04/30 04:42:48;;;;;;;34.80;13.90;;;11.00;99.90;;;;;;5068168;28;20017;-67
2021/04/30 04:45:14;;;;;;;23.83;10.32;;;11.00;99.90;;;;;;5066712;28;20036;-67
2021/04/30 04:47:41;;;;;;;15.70;7.45;;;10.90;99.90;;;;;;5065893;28;20134;-65
2021/04/30 04:50:08;;;;;;;14.52;6.20;;;10.80;99.90;;;;;;5066785;28;20518;-67
2021/04/30 04:52:35;;;;;;;9.85;5.30;;;10.80;99.90;;;;;;5067130;28;20023;-67
2021/04/30 04:55:01;;;;;;;8.25;4.82;;;10.80;99.90;;;;;;5067041;28;20109;-67
2021/04/30 04:57:26;;;;;;;14.20;6.32;;;10.80;99.90;;;;;;5066465;28;20020;-68
2021/04/30 04:59:52;;;;;;;13.20;5.93;;;10.80;99.90;;;;;;5066455;28;20115;-67
2021/04/30 05:02:19;;;;;;;8.73;4.55;;;10.70;99.90;;;;;;5066923;28;20055;-67
2021/04/30 05:04:46;;;;;;;7.13;4.40;;;10.70;99.90;;;;;;5067093;28;20545;-67
2021/04/30 05:07:11;;;;;;;7.43;3.75;;;10.60;99.90;;;;;;5066791;28;20035;-68
2021/04/30 05:09:37;;;;;;;8.88;4.38;;;10.70;99.90;;;;;;5066147;28;20507;-67
2021/04/30 05:12:03;;;;;;;6.75;3.75;;;10.70;99.90;;;;;;5065912;28;20021;-67
2021/04/30 05:14:28;;;;;;;10.65;5.25;;;10.70;99.90;;;;;;5066300;28;20071;-68
2021/04/30 05:16:55;;;;;;;12.60;4.90;;;10.50;99.90;;;;;;5066271;28;20394;-67
2021/04/30 05:19:21;;;;;;;11.02;5.07;;;10.60;99.90;;;;;;5066150;28;20060;-67
2021/04/30 05:21:48;;;;;;;11.35;5.40;;;10.60;99.90;;;;;;5066387;28;20458;-66
2021/04/30 05:24:14;;;;;;;9.95;4.70;;;10.60;99.90;;;;;;5066238;28;20112;-65
2021/04/30 05:26:40;;;;;;;12.07;5.95;;;10.60;99.90;;;;;;5066300;28;20020;-65
2021/04/30 05:29:07;;;;;;;8.77;5.25;;;10.50;99.90;;;;;;5066094;28;20027;-66
2021/04/30 05:31:34;;;;;;;6.25;3.70;;;10.30;99.90;;;;;;5065690;28;20031;-65
2021/04/30 05:34:02;;;;;;;6.95;2.80;;;10.20;99.90;;;;;;5065974;28;20077;-65
2021/04/30 05:36:30;;;;;;;4.68;2.65;;;10.20;99.90;;;;;;5065863;28;20024;-65
2021/04/30 05:38:56;;;;;;;4.57;2.55;;;10.10;99.90;;;;;;5065775;28;20032;-66
2021/04/30 05:41:21;;;;;;;3.95;2.22;;;10.00;99.90;;;;;;5065773;28;20032;-66
2021/04/30 05:43:48;;;;;;;3.30;3.00;;;10.00;99.90;;;;;;5066280;28;20086;-64
2021/04/30 05:46:15;;;;;;;5.72;2.65;;;10.00;99.90;;;;;;5065941;28;20032;-65
2021/04/30 05:48:42;;;;;;;7.03;4.75;;;10.00;99.90;;;;;;5065436;28;20020;-64
2021/04/30 05:51:08;;;;;;;6.32;4.65;;;9.90;99.90;;;;;;5065599;28;20081;-63
2021/04/30 05:53:34;;;;;;;8.95;4.57;;;10.00;99.90;;;;;;5065836;28;20024;-65
2021/04/30 05:56:00;;;;;;;6.93;4.45;;;9.90;99.90;;;;;;5065661;28;20494;-63
2021/04/30 05:58:26;;;;;;;4.88;3.60;;;9.90;99.90;;;;;;5065319;28;20016;-65
2021/04/30 06:00:52;;;;;;;6.22;4.50;;;9.90;99.90;;;;;;5065679;28;20035;-65
2021/04/30 06:03:19;;;;;;;7.95;4.93;;;10.00;99.90;;;;;;5065972;28;20217;-63
2021/04/30 06:05:44;;;;;;;6.72;4.10;;;9.90;99.90;;;;;;5065989;28;20494;-63
2021/04/30 06:08:11;;;;;;;8.98;4.55;;;10.00;99.90;;;;;;5065674;28;20028;-64
2021/04/30 06:10:37;;;;;;;6.18;4.25;;;10.00;99.90;;;;;;5064802;28;20032;-63
2021/04/30 06:13:06;;;;;;;6.50;4.40;;;10.00;99.90;;;;;;5065585;28;20032;-63
2021/04/30 06:15:33;;;;;;;7.03;4.82;;;9.90;99.90;;;;;;5065182;28;20028;-64
2021/04/30 06:18:00;;;;;;;6.45;4.57;;;10.00;99.90;;;;;;5065117;28;20386;-64
2021/04/30 06:20:26;;;;;;;12.13;5.65;;;9.90;99.90;;;;;;5061550;28;20030;-63
2021/04/30 06:22:52;;;;;;;8.43;6.05;;;9.90;99.90;;;;;;5068167;28;20040;-64
2021/04/30 06:25:18;;;;;;;9.10;6.20;;;9.80;99.90;;;;;;5067463;28;20024;-63
2021/04/30 06:27:44;;;;;;;8.00;5.68;;;9.80;99.90;;;;;;5066298;28;20529;-63
2021/04/30 06:30:10;;;;;;;9.57;5.97;;;9.90;99.90;;;;;;5066788;28;20029;-63
2021/04/30 06:32:38;;;;;;;6.22;4.75;;;9.80;99.90;;;;;;5066385;28;20675;-64
2021/04/30 06:35:06;;;;;;;7.85;5.72;;;9.80;99.90;;;;;;5065827;28;20024;-63
2021/04/30 06:37:33;;;;;;;11.23;6.80;;;9.70;99.90;;;;;;5056164;28;20056;-63
2021/04/30 06:40:00;;;;;;;11.40;6.93;;;9.60;99.90;;;;;;5045137;28;20028;-63
2021/04/30 06:42:25;;;;;;;6.80;5.10;;;9.50;99.90;;;;;;5044304;28;20025;-63
2021/04/30 06:44:53;;;;;;;11.13;4.70;;;9.60;99.90;;;;;;5044487;28;20058;-63
2021/04/30 06:47:18;;;;;;;11.38;7.10;;;9.50;99.90;;;;;;5045543;28;20108;-63
2021/04/30 06:49:44;;;;;;;7.13;5.65;;;9.30;99.90;;;;;;5044778;28;20128;-63
2021/04/30 06:52:10;;;;;;;7.05;5.10;;;9.40;99.90;;;;;;5045131;28;20770;-63
2021/04/30 06:54:36;;;;;;;5.57;4.35;;;9.50;99.90;;;;;;5047305;28;20506;-63
2021/04/30 06:57:03;;;;;;;6.38;4.07;;;9.70;99.90;;;;;;5064366;28;20056;-65
2021/04/30 06:59:28;;;;;;;5.00;3.70;;;9.80;99.90;;;;;;5064206;28;20108;-64
2021/04/30 07:01:54;;;;;;;5.93;4.25;;;9.80;99.90;;;;;;5065970;28;20135;-63
2021/04/30 07:04:20;;;;;;;10.05;5.72;;;9.60;99.90;;;;;;5064938;28;20654;-65
2021/04/30 07:06:46;;;;;;;8.80;5.22;;;9.50;99.90;;;;;;5067248;28;20039;-65
2021/04/30 07:09:12;;;;;;;7.32;3.78;;;9.60;99.90;;;;;;5062960;28;20043;-64
2021/04/30 07:11:38;;;;;;;6.63;3.97;;;9.60;99.90;;;;;;5063848;28;20052;-64
2021/04/30 07:14:05;;;;;;;7.97;4.40;;;9.80;99.90;;;;;;5066458;28;20558;-65
2021/04/30 07:16:31;;;;;;;7.00;4.32;;;9.70;99.90;;;;;;5065418;28;20024;-64
2021/04/30 07:18:57;;;;;;;7.07;3.63;;;9.50;99.90;;;;;;5065072;28;20534;-67
2021/04/30 07:21:23;;;;;;;7.05;4.15;;;9.70;99.90;;;;;;5071253;28;20039;-67
2021/04/30 07:23:48;;;;;;;6.93;4.18;;;9.70;99.90;;;;;;5064850;28;20021;-66
2021/04/30 07:26:14;;;;;;;7.97;4.75;;;9.60;99.90;;;;;;5064696;28;20036;-66
2021/04/30 07:28:40;;;;;;;5.18;3.78;;;9.70;99.90;;;;;;5064055;28;20056;-66
2021/04/30 07:31:06;;;;;;;5.32;3.85;;;9.70;99.90;;;;;;5063838;28;20398;-66
2021/04/30 07:33:32;;;;;;;5.70;4.10;;;9.80;99.90;;;;;;5064468;28;20518;-67
2021/04/30 07:35:59;;;;;;;8.05;5.20;;;9.80;99.90;;;;;;5064550;28;20039;-66
2021/04/30 07:38:25;;;;;;;6.13;4.47;;;9.80;99.90;;;;;;5064241;28;20103;-66
2021/04/30 07:40:52;;;;;;;6.30;3.85;;;9.90;99.90;;;;;;5064650;28;20024;-67
2021/04/30 07:43:19;;;;;;;5.18;3.58;;;9.90;99.90;;;;;;5076823;28;20037;-66
2021/04/30 07:45:45;;;;;;;4.65;3.72;;;9.90;99.90;;;;;;5086432;28;20105;-66
2021/04/30 07:48:11;;;;;;;5.15;3.70;;;10.00;99.90;;;;;;5069169;28;20442;-65
2021/04/30 07:50:39;;;;;;;4.10;3.40;;;9.90;99.90;;;;;;5068097;28;20437;-65
2021/04/30 07:53:05;;;;;;;8.90;5.28;;;9.90;99.90;;;;;;5068106;28;20413;-66
2021/04/30 07:55:31;;;;;;;9.98;5.97;;;10.00;99.90;;;;;;5068062;28;20398;-65
2021/04/30 07:57:57;;;;;;;8.52;5.80;;;10.10;99.90;;;;;;5067936;28;20032;-65
2021/04/30 08:00:23;;;;;;;10.23;5.90;;;10.20;99.90;;;;;;5067380;28;20028;-65
2021/04/30 08:02:49;;;;;;;6.50;4.72;;;10.20;99.90;;;;;;5068189;28;20036;-64
2021/04/30 08:05:16;;;;;;;6.35;4.53;;;10.20;99.90;;;;;;5067791;28;20112;-65
2021/04/30 08:07:43;;;;;;;5.43;4.13;;;10.20;99.90;;;;;;5067533;28;20029;-65
2021/04/30 08:10:11;;;;;;;4.57;3.83;;;10.20;99.90;;;;;;5067310;28;20448;-65
2021/04/30 08:12:37;;;;;;;6.75;3.42;;;10.30;99.90;;;;;;5067585;28;20546;-65
2021/04/30 08:15:03;;;;;;;4.85;3.25;;;10.20;99.90;;;;;;5066049;28;20044;-65
2021/04/30 08:17:31;;;;;;;4.63;3.25;;;10.30;99.90;;;;;;5067583;28;20036;-64
2021/04/30 08:20:00;;;;;;;3.20;2.90;;;10.20;99.90;;;;;;5067544;28;20445;-66
2021/04/30 08:22:27;;;;;;;4.53;3.65;;;10.30;99.90;;;;;;5058979;28;20035;-66
2021/04/30 08:24:53;;;;;;;3.20;2.90;;;10.20;99.90;;;;;;5067484;28;20032;-66
2021/04/30 08:27:20;;;;;;;3.50;2.88;;;10.20;99.90;;;;;;5067863;28;20037;-66
2021/04/30 08:29:47;;;;;;;3.63;2.95;;;10.00;99.90;;;;;;5067542;28;20017;-66
2021/04/30 08:32:13;;;;;;;3.72;2.50;;;9.90;99.90;;;;;;5067505;28;20043;-66
2021/04/30 08:34:40;;;;;;;3.30;2.65;;;9.90;99.90;;;;;;5067209;28;20025;-66
2021/04/30 08:37:06;;;;;;;3.45;3.00;;;10.10;99.90;;;;;;5067223;28;20035;-66
2021/04/30 08:39:33;;;;;;;3.58;2.70;;;10.00;99.90;;;;;;5066974;28;20025;-67
2021/04/30 08:41:58;;;;;;;3.55;2.72;;;10.00;99.90;;;;;;5067386;28;20028;-66
2021/04/30 08:44:25;;;;;;;9.98;6.30;;;9.80;99.90;;;;;;5066899;28;20036;-66
2021/04/30 08:46:52;;;;;;;6.25;4.15;;;9.70;99.90;;;;;;5067536;28;20033;-66
2021/04/30 08:49:18;;;;;;;6.38;4.28;;;9.80;99.90;;;;;;5067954;28;20024;-66
2021/04/30 08:51:45;;;;;;;6.93;4.10;;;9.90;99.90;;;;;;5066880;28;20020;-65
2021/04/30 08:54:13;;;;;;;6.95;3.22;;;10.10;99.90;;;;;;5067023;28;20081;-66
2021/04/30 08:56:48;;;;;;;6.82;3.97;;;9.90;99.90;;;;;;5065922;28;20063;-66
2021/04/30 08:59:15;;;;;;;4.07;3.10;;;9.80;99.90;;;;;;5066559;28;20074;-66
2021/04/30 09:01:41;;;;;;;4.53;3.03;;;9.90;99.90;;;;;;5066730;28;20111;-66
2021/04/30 09:04:08;;;;;;;6.15;3.30;;;10.00;99.90;;;;;;5066789;28;20103;-66
2021/04/30 09:06:39;;;;;;;4.95;3.03;;;10.00;99.90;;;;;;5066979;28;20467;-66
2021/04/30 09:09:10;;;;;;;5.40;2.90;;;10.10;99.90;;;;;;5066487;28;20036;-65
2021/04/30 09:11:38;;;;;;;3.75;2.88;;;10.10;99.90;;;;;;5063429;28;20029;-65
2021/04/30 09:14:22;;;;;;;3.47;2.65;;;10.10;99.90;;;;;;5064588;28;20541;-65
2021/04/30 09:17:14;;;;;;;4.78;3.03;;;9.90;99.90;;;;;;5070230;28;20121;-64
2021/04/30 09:19:40;;;;;;;6.95;2.95;;;10.00;99.90;;;;;;5065402;28;20043;-65
2021/04/30 09:22:09;;;;;;;4.78;3.22;;;9.90;99.90;;;;;;5065730;28;20025;-67
2021/04/30 09:24:36;;;;;;;4.30;2.60;;;10.00;99.90;;;;;;5065426;28;20086;-66
2021/04/30 09:27:04;;;;;;;3.65;2.58;;;10.20;99.90;;;;;;5065760;28;20459;-66
2021/04/30 09:29:35;;;;;;;3.78;2.53;;;10.10;99.90;;;;;;5065122;28;20027;-67
2021/04/30 09:32:03;;;;;;;2.92;2.38;;;10.20;99.90;;;;;;5065679;28;20082;-67
2021/04/30 09:34:35;;;;;;;4.07;2.40;;;10.10;99.90;;;;;;5065465;28;20028;-67
2021/04/30 09:37:02;;;;;;;3.08;2.25;;;10.10;99.90;;;;;;5065450;28;20039;-67
2021/04/30 09:39:30;;;;;;;4.47;2.22;;;10.30;99.90;;;;;;5065181;28;20030;-66
2021/04/30 09:42:15;;;;;;;2.72;2.10;;;10.30;99.90;;;;;;5065329;28;20056;-67
2021/04/30 09:44:43;;;;;;;4.75;2.50;;;10.40;99.90;;;;;;5065196;28;20017;-66
2021/04/30 09:47:24;;;;;;;4.10;2.28;;;10.30;99.90;;;;;;5065578;28;20027;-67
2021/04/30 09:49:52;;;;;;;4.55;2.40;;;10.10;99.90;;;;;;5065665;28;20056;-67
2021/04/30 09:52:19;;;;;;;6.05;1.98;;;10.20;99.90;;;;;;5065818;28;20498;-66
2021/04/30 09:54:45;;;;;;;4.57;2.28;;;10.20;99.90;;;;;;5068739;28;20032;-66
2021/04/30 09:57:19;;;;;;;2.65;1.80;;;10.20;99.90;;;;;;5065449;28;20086;-67
2021/04/30 10:00:00;;;;;;;2.58;2.22;;;10.20;99.90;;;;;;5083973;28;20031;-66
2021/04/30 10:02:31;;;;;;;2.00;1.80;;;10.20;99.90;;;;;;5070030;28;20036;-66
2021/04/30 10:04:58;;;;;;;1.98;1.75;;;10.40;99.90;;;;;;5062283;28;20013;-66
2021/04/30 10:07:30;;;;;;;2.25;2.05;;;10.40;99.90;;;;;;5072079;28;20023;-67
2021/04/30 10:10:02;;;;;;;2.20;1.92;;;10.30;99.90;;;;;;5063948;28;20025;-67
2021/04/30 10:12:28;;;;;;;1.98;1.85;;;9.80;99.90;;;;;;5064923;28;20052;-67
2021/04/30 10:14:55;;;;;;;3.33;1.40;;;9.80;99.90;;;;;;5064723;28;20052;-68
2021/04/30 10:17:21;;;;;;;1.23;1.13;;;9.90;99.90;;;;;;5064605;28;20040;-67
2021/04/30 10:19:49;;;;;;;1.38;1.27;;;10.00;99.90;;;;;;5065297;28;20483;-67
2021/04/30 10:22:20;;;;;;;1.20;1.10;;;10.10;99.90;;;;;;5065228;28;20024;-66
2021/04/30 10:24:57;;;;;;;3.00;1.40;;;10.20;99.90;;;;;;5065128;28;20051;-67
2021/04/30 10:27:29;;;;;;;1.45;1.30;;;10.00;99.90;;;;;;5063279;28;20095;-67
2021/04/30 10:30:19;;;;;;;1.20;1.10;;;9.90;99.90;;;;;;5064129;28;20123;-67
2021/04/30 10:33:22;;;;;;;1.42;1.30;;;10.00;99.90;;;;;;5065283;28;20040;-67
2021/04/30 10:36:13;;;;;;;1.10;1.00;;;9.70;99.90;;;;;;5065693;28;20032;-66
2021/04/30 10:38:50;;;;;;;2.97;1.02;;;9.70;99.90;;;;;;5063919;28;20032;-66
2021/04/30 10:41:39;;;;;;;1.00;0.95;;;9.90;99.90;;;;;;5064989;28;20063;-67
2021/04/30 10:44:23;;;;;;;1.05;0.95;;;10.10;99.90;;;;;;5064308;28;20033;-65
2021/04/30 10:47:10;;;;;;;2.38;1.13;;;10.10;99.90;;;;;;5065486;28;20023;-65
2021/04/30 10:49:36;;;;;;;1.02;0.95;;;10.10;99.90;;;;;;5064339;28;20150;-65
2021/04/30 10:52:16;;;;;;;0.93;0.93;;;10.30;99.90;;;;;;5064338;28;20020;-65
2021/04/30 10:54:43;;;;;;;0.73;0.70;;;10.40;99.90;;;;;;5063076;28;20107;-65
2021/04/30 10:57:17;;;;;;;0.75;0.70;;;10.20;99.90;;;;;;5064184;28;20100;-64
2021/04/30 10:59:51;;;;;;;1.27;1.10;;;10.30;99.90;;;;;;5063838;28;20406;-65
2021/04/30 11:02:28;;;;;;;2.17;1.15;;;10.20;99.90;;;;;;5065423;28;20117;-66
2021/04/30 11:05:05;;;;;;;1.45;1.05;;;10.30;99.90;;;;;;5064325;28;20043;-66
2021/04/30 11:07:34;;;;;;;1.40;1.13;;;10.50;99.90;;;;;;5063950;28;20036;-64
2021/04/30 11:10:00;;;;;;;1.20;1.10;;;10.40;99.90;;;;;;5064256;28;20515;-65
2021/04/30 11:12:27;;;;;;;1.23;1.13;;;10.40;99.90;;;;;;5072678;28;20028;-65
2021/04/30 11:15:10;;;;;;;1.52;1.23;;;10.30;99.90;;;;;;5054860;28;20077;-65
2021/04/30 11:18:01;;;;;;;1.55;1.30;;;10.40;99.90;;;;;;5054161;28;20678;-65
2021/04/30 11:20:33;;;;;;;1.65;1.10;;;10.50;99.90;;;;;;5066944;28;20736;-66
2021/04/30 11:23:20;;;;;;;1.40;1.30;;;10.50;99.90;;;;;;5068010;28;20340;-66
2021/04/30 11:25:58;;;;;;;2.75;1.48;;;10.40;99.90;;;;;;5066010;28;20009;-66
2021/04/30 11:28:30;;;;;;;1.42;1.10;;;10.30;99.90;;;;;;5067579;28;20107;-65
2021/04/30 11:31:13;;;;;;;4.85;1.50;;;10.50;99.90;;;;;;5069551;28;20025;-66
2021/04/30 11:33:41;;;;;;;2.55;1.80;;;10.40;99.90;;;;;;5060816;28;20021;-66
2021/04/30 11:36:11;;;;;;;3.40;2.25;;;10.20;99.90;;;;;;5059987;28;20028;-66
2021/04/30 11:38:49;;;;;;;5.13;3.00;;;10.10;99.90;;;;;;5063892;28;20394;-66
2021/04/30 11:41:16;;;;;;;4.50;2.60;;;10.30;99.90;;;;;;5069812;28;20032;-66
2021/04/30 11:43:49;;;;;;;3.50;2.20;;;10.40;99.90;;;;;;5068147;28;20035;-66
2021/04/30 11:46:16;;;;;;;3.35;2.00;;;10.40;99.90;;;;;;5069573;28;20024;-66
2021/04/30 11:48:43;;;;;;;2.25;1.65;;;10.40;99.90;;;;;;5067611;28;20043;-66
2021/04/30 11:51:11;;;;;;;5.45;2.60;;;10.40;99.90;;;;;;5066779;28;20025;-65
2021/04/30 11:53:40;;;;;;;5.18;3.05;;;10.20;99.90;;;;;;5067098;28;20430;-65
2021/04/30 11:56:06;;;;;;;4.60;2.60;;;10.30;99.90;;;;;;5067386;28;20502;-65
2021/04/30 11:58:46;;;;;;;5.00;2.50;;;10.40;99.90;;;;;;5066994;28;20406;-65
2021/04/30 12:01:14;;;;;;;7.22;2.53;;;10.50;99.90;;;;;;5067447;28;20085;-63
2021/04/30 12:03:45;;;;;;;6.88;2.83;;;10.40;99.90;;;;;;5067055;28;20032;-63
2021/04/30 12:06:18;;;;;;;4.95;2.80;;;10.40;99.90;;;;;;5067165;28;20616;-64
2021/04/30 12:08:46;;;;;;;5.90;3.25;;;10.30;99.90;;;;;;5065972;28;20024;-64
2021/04/30 12:11:24;;;;;;;6.63;3.30;;;10.40;99.90;;;;;;5066876;28;20024;-66
2021/04/30 12:13:57;;;;;;;5.72;3.00;;;10.20;99.90;;;;;;5066303;28;20135;-65
2021/04/30 12:16:23;;;;;;;4.13;2.10;;;10.20;99.90;;;;;;5066713;28;20441;-65
2021/04/30 12:18:54;;;;;;;2.80;1.90;;;10.20;99.90;;;;;;5067445;28;20162;-66
2021/04/30 12:21:32;;;;;;;2.63;1.80;;;10.20;99.90;;;;;;5066890;28;20024;-66
2021/04/30 12:24:00;;;;;;;4.97;2.67;;;10.20;99.90;;;;;;5080898;28;20035;-65
2021/04/30 12:26:33;;;;;;;4.22;2.70;;;10.10;99.90;;;;;;5079237;28;20076;-64
2021/04/30 12:29:05;;;;;;;5.07;3.17;;;10.30;99.90;;;;;;5066543;28;20086;-64
2021/04/30 12:31:31;;;;;;;6.07;3.47;;;10.50;99.90;;;;;;5065581;28;20032;-65
2021/04/30 12:33:57;;;;;;;6.05;3.20;;;10.30;99.90;;;;;;5066805;28;20024;-64
2021/04/30 12:36:24;;;;;;;6.70;3.58;;;10.20;99.90;;;;;;5066324;28;20033;-64
2021/04/30 12:38:58;;;;;;;5.75;3.08;;;10.30;99.90;;;;;;5070516;28;20036;-64
2021/04/30 12:41:32;;;;;;;4.38;2.70;;;10.50;99.90;;;;;;5066698;28;20061;-63
2021/04/30 12:44:00;;;;;;;8.48;3.92;;;10.50;99.90;;;;;;5064624;28;20051;-64
2021/04/30 12:46:29;;;;;;;8.75;3.90;;;10.50;99.90;;;;;;5066212;28;20112;-64
2021/04/30 12:48:57;;;;;;;5.70;2.70;;;10.50;99.90;;;;;;5066492;28;20021;-64
2021/04/30 12:51:27;;;;;;;6.22;3.28;;;10.40;99.90;;;;;;5066226;28;20021;-64
2021/04/30 12:53:53;;;;;;;6.38;3.30;;;10.40;99.90;;;;;;5066299;28;20059;-64